createdAt,value
2023-02-15T00:01:09.038Z,2.90
2023-02-15T00:03:38.882Z,3.30
2023-02-15T00:06:08.159Z,6.40
2023-02-15T00:08:37.627Z,3.60
2023-02-15T00:11:06.774Z,6.30
2023-02-15T00:13:36.560Z,4.20
2023-02-15T00:16:08.470Z,5.90
2023-02-15T00:18:38.338Z,3.00
2023-02-15T00:21:08.278Z,3.70
2023-02-15T00:23:37.297Z,5.20
2023-02-15T00:26:10.177Z,4.10
2023-02-15T00:28:38.978Z,2.00
2023-02-15T00:31:08.419Z,2.40
2023-02-15T00:33:37.973Z,2.40
2023-02-15T00:36:08.375Z,4.30
2023-02-15T00:38:37.413Z,2.80
2023-02-15T00:41:07.222Z,3.30
2023-02-15T00:43:36.800Z,2.70
2023-02-15T00:46:08.509Z,5.00
2023-02-15T00:48:36.964Z,4.10
2023-02-15T00:51:05.606Z,3.30
2023-02-15T00:53:34.200Z,4.50
2023-02-15T01:03:42.983Z,3.80
2023-02-15T01:06:11.772Z,5.70
2023-02-15T01:08:40.642Z,5.40
2023-02-15T01:11:11.767Z,3.80
2023-02-15T01:13:41.122Z,2.00
2023-02-15T01:16:09.498Z,1.70
2023-02-15T01:18:38.005Z,3.20
2023-02-15T01:21:11.360Z,2.60
2023-02-15T01:23:39.576Z,2.80
2023-02-15T01:26:08.228Z,3.00
2023-02-15T01:28:36.728Z,2.20
2023-02-15T01:31:08.201Z,3.20
2023-02-15T01:33:37.059Z,2.90
2023-02-15T01:36:05.850Z,1.50
2023-02-15T01:38:34.339Z,3.90
2023-02-15T01:41:21.349Z,3.80
2023-02-15T01:43:57.574Z,1.60
2023-02-15T01:46:52.683Z,3.20
2023-02-15T01:49:22.129Z,2.50
2023-02-15T01:51:50.606Z,3.80
2023-02-15T01:54:25.984Z,3.40
2023-02-15T01:56:56.192Z,1.20
2023-02-15T01:59:24.551Z,1.40
2023-02-15T02:01:53.827Z,5.10
2023-02-15T02:04:35.006Z,2.10
2023-02-15T02:07:03.821Z,3.20
2023-02-15T02:09:33.606Z,1.90
2023-02-15T02:12:01.846Z,1.60
2023-02-15T02:14:30.114Z,2.50
2023-02-15T02:17:20.281Z,1.60
2023-02-15T02:19:57.928Z,1.90
2023-02-15T02:22:56.372Z,1.90
2023-02-15T02:25:39.905Z,1.80
2023-02-15T02:28:46.257Z,1.80
2023-02-15T02:31:39.341Z,2.60
2023-02-15T02:34:45.099Z,2.20
2023-02-15T02:37:21.606Z,2.30
2023-02-15T02:39:56.189Z,3.00
2023-02-15T02:42:32.477Z,2.10
2023-02-15T02:45:14.553Z,5.00
2023-02-15T02:47:50.256Z,2.10
2023-02-15T02:50:23.188Z,2.80
2023-02-15T02:52:53.455Z,6.90
2023-02-15T02:55:40.230Z,3.50
2023-02-15T02:58:12.779Z,5.10
2023-02-15T03:01:02.789Z,2.60
2023-02-15T03:03:40.011Z,2.80
2023-02-15T03:06:13.108Z,3.10
2023-02-15T03:08:43.816Z,2.30
2023-02-15T03:11:11.981Z,1.40
2023-02-15T03:13:40.421Z,1.60
2023-02-15T03:16:27.228Z,1.50
2023-02-15T03:19:23.472Z,1.40
2023-02-15T03:22:04.927Z,1.80
2023-02-15T03:24:36.380Z,3.60
2023-02-15T03:27:06.888Z,3.20
2023-02-15T03:29:35.211Z,4.30
2023-02-15T03:32:04.559Z,2.20
2023-02-15T03:34:33.117Z,3.60
2023-02-15T03:37:02.697Z,1.60
2023-02-15T03:39:37.017Z,4.60
2023-02-15T03:42:08.540Z,1.90
2023-02-15T03:45:00.591Z,1.80
2023-02-15T03:47:31.468Z,2.10
2023-02-15T03:50:29.988Z,4.60
2023-02-15T03:52:58.715Z,3.30
2023-02-15T03:55:27.415Z,1.70
2023-02-15T03:58:15.404Z,3.00
2023-02-15T04:01:08.797Z,2.10
2023-02-15T04:03:42.002Z,1.10
2023-02-15T04:06:10.298Z,2.80
2023-02-15T04:08:58.273Z,3.50
2023-02-15T04:11:27.667Z,1.50
2023-02-15T04:13:57.732Z,2.20
2023-02-15T04:16:26.323Z,1.30
2023-02-15T04:19:13.306Z,2.80
2023-02-15T04:22:00.438Z,4.00
2023-02-15T04:24:47.388Z,1.90
2023-02-15T04:27:16.280Z,3.30
2023-02-15T04:29:46.356Z,2.60
2023-02-15T04:32:14.689Z,2.70
2023-02-15T04:34:42.891Z,3.20
2023-02-15T04:37:11.453Z,4.90
2023-02-15T04:39:39.837Z,2.80
2023-02-15T04:42:08.077Z,1.80
2023-02-15T04:44:38.796Z,3.20
2023-02-15T04:47:07.105Z,2.50
2023-02-15T04:49:35.870Z,2.90
2023-02-15T04:52:05.257Z,5.70
2023-02-15T04:54:33.888Z,6.30
2023-02-15T04:57:02.424Z,5.70
2023-02-15T04:59:30.791Z,3.00
2023-02-15T05:01:59.491Z,3.80
2023-02-15T05:04:27.568Z,2.00
2023-02-15T05:06:55.777Z,3.70
2023-02-15T05:09:25.864Z,1.90
2023-02-15T05:11:54.528Z,1.60
2023-02-15T05:14:22.849Z,2.60
2023-02-15T05:16:52.575Z,3.20
2023-02-15T05:19:20.981Z,2.80
2023-02-15T05:21:49.196Z,5.40
2023-02-15T05:24:36.590Z,4.60
2023-02-15T05:27:23.612Z,5.90
2023-02-15T05:29:52.233Z,4.90
2023-02-15T05:34:54.319Z,4.50
2023-02-15T05:37:22.493Z,4.20
2023-02-15T05:39:50.557Z,3.40
2023-02-15T05:42:18.738Z,3.50
2023-02-15T05:44:46.826Z,2.80
2023-02-15T05:47:14.985Z,4.50
2023-02-15T05:49:43.355Z,5.80
2023-02-15T05:52:13.395Z,6.00
2023-02-15T05:54:41.673Z,5.00
2023-02-15T05:57:09.920Z,2.50
2023-02-15T05:59:40.210Z,2.80
2023-02-15T06:02:11.118Z,2.50
2023-02-15T06:04:39.791Z,3.10
2023-02-15T06:07:07.861Z,2.30
2023-02-15T06:09:38.165Z,3.50
2023-02-15T06:12:06.727Z,5.20
2023-02-15T06:14:34.950Z,6.00
2023-02-15T06:17:03.333Z,5.20
2023-02-15T06:19:31.515Z,4.00
2023-02-15T06:22:00.143Z,2.00
2023-02-15T06:24:28.406Z,7.60
2023-02-15T06:26:56.861Z,4.00
2023-02-15T06:29:25.086Z,3.70
2023-02-15T06:31:53.612Z,5.10
2023-02-15T06:34:22.009Z,7.90
2023-02-15T06:36:50.317Z,3.00
2023-02-15T06:39:18.552Z,3.20
2023-02-15T06:41:46.933Z,3.80
2023-02-15T06:44:15.143Z,3.40
2023-02-15T06:46:43.376Z,2.60
2023-02-15T06:49:11.944Z,4.50
2023-02-15T06:51:40.410Z,3.40
2023-02-15T06:54:08.917Z,4.40
2023-02-15T06:56:37.433Z,3.90
2023-02-15T06:59:05.896Z,5.70
2023-02-15T07:01:35.057Z,4.30
2023-02-15T07:04:03.885Z,3.90
2023-02-15T07:06:34.293Z,3.90
2023-02-15T07:09:03.370Z,2.50
2023-02-15T07:11:54.316Z,4.20
2023-02-15T07:14:23.021Z,4.30
2023-02-15T07:16:51.585Z,4.20
2023-02-15T07:19:19.669Z,2.40
2023-02-15T07:21:48.250Z,6.40
2023-02-15T07:24:16.418Z,3.20
2023-02-15T07:26:47.814Z,7.70
2023-02-15T07:29:17.097Z,3.10
2023-02-15T07:31:46.462Z,2.60
2023-02-15T07:34:14.709Z,3.50
2023-02-15T07:36:45.115Z,3.40
2023-02-15T07:39:14.008Z,3.40
2023-02-15T07:41:42.154Z,4.30
2023-02-15T07:44:14.780Z,3.40
2023-02-15T07:46:43.203Z,2.50
2023-02-15T07:49:11.670Z,5.80
2023-02-15T07:51:42.130Z,4.10
2023-02-15T07:54:10.399Z,3.50
2023-02-15T07:56:38.675Z,2.20
2023-02-15T07:59:07.012Z,4.50
2023-02-15T08:01:37.328Z,2.80
2023-02-15T08:04:06.914Z,5.80
2023-02-15T08:06:36.315Z,2.90
2023-02-15T08:09:08.084Z,2.80
2023-02-15T08:11:37.802Z,2.30
2023-02-15T08:14:17.017Z,7.10
2023-02-15T08:16:53.409Z,1.80
2023-02-15T08:19:24.958Z,4.50
2023-02-15T08:22:05.176Z,3.40
2023-02-15T08:24:35.709Z,4.10
2023-02-15T08:27:10.112Z,4.80
2023-02-15T08:29:38.903Z,3.80
2023-02-15T08:32:10.436Z,2.90
2023-02-15T08:34:41.454Z,4.50
2023-02-15T08:37:10.489Z,3.40
2023-02-15T08:39:40.517Z,2.40
2023-02-15T08:42:09.470Z,3.40
2023-02-15T08:44:37.800Z,3.60
2023-02-15T08:47:06.115Z,7.80
2023-02-15T08:49:34.527Z,3.00
2023-02-15T08:52:02.933Z,3.50
2023-02-15T08:54:31.444Z,3.00
2023-02-15T08:57:01.290Z,4.00
2023-02-15T08:59:30.002Z,3.30
2023-02-15T09:01:58.209Z,2.50
2023-02-15T09:04:26.412Z,2.90
2023-02-15T09:06:56.257Z,2.80
2023-02-15T09:09:32.382Z,3.70
2023-02-15T09:12:00.479Z,3.60
2023-02-15T09:14:28.624Z,2.70
2023-02-15T09:16:57.028Z,4.30
2023-02-15T09:19:25.682Z,5.80
2023-02-15T09:21:54.766Z,3.00
2023-02-15T09:24:23.165Z,2.60
2023-02-15T09:26:54.528Z,3.20
2023-02-15T09:29:23.868Z,5.40
2023-02-15T09:31:52.368Z,2.40
2023-02-15T09:34:22.624Z,3.10
2023-02-15T09:36:50.937Z,2.80
2023-02-15T09:39:24.988Z,4.70
2023-02-15T09:41:53.617Z,5.20
2023-02-15T09:44:41.256Z,2.50
2023-02-15T09:47:42.264Z,1.50
2023-02-15T09:50:13.727Z,2.40
2023-02-15T09:53:08.904Z,2.80
2023-02-15T09:55:41.761Z,2.80
2023-02-15T09:58:25.464Z,2.50
2023-02-15T11:36:05.448Z,2.20
2023-02-15T11:38:33.314Z,1.20
2023-02-15T11:41:05.272Z,1.80
2023-02-15T11:43:40.208Z,1.70
2023-02-15T11:46:09.476Z,3.30
2023-02-15T11:48:37.448Z,1.70
2023-02-15T11:51:04.874Z,1.30
2023-02-15T11:53:33.549Z,1.60
2023-02-15T11:56:00.293Z,1.70
2023-02-15T11:58:38.323Z,4.20
2023-02-15T12:01:30.133Z,2.20
2023-02-15T12:03:59.903Z,3.10
2023-02-15T12:06:34.079Z,3.00
2023-02-15T12:09:16.718Z,1.00
2023-02-15T12:11:43.664Z,1.50
2023-02-15T12:14:21.099Z,1.90
2023-02-15T12:16:54.559Z,2.70
2023-02-15T12:19:38.393Z,4.40
2023-02-15T12:22:05.828Z,2.20
2023-02-15T12:24:45.935Z,1.50
2023-02-15T12:27:16.566Z,3.10
2023-02-15T12:29:46.769Z,4.10
2023-02-15T12:32:31.025Z,1.20
2023-02-15T12:35:15.175Z,4.10
2023-02-15T12:37:55.620Z,2.30
2023-02-15T12:40:30.925Z,2.70
2023-02-15T12:42:58.734Z,2.70
2023-02-15T12:45:31.151Z,1.30
2023-02-15T12:48:16.906Z,1.40
2023-02-15T12:50:46.071Z,0.70
2023-02-15T12:53:19.650Z,1.80
2023-02-15T12:56:03.188Z,2.30
2023-02-15T12:58:31.321Z,2.40
2023-02-15T13:01:12.370Z,2.30
2023-02-15T13:03:53.521Z,1.30
2023-02-15T13:06:20.398Z,2.60
2023-02-15T13:08:50.807Z,1.00
2023-02-15T13:11:37.972Z,1.00
2023-02-15T13:14:29.492Z,1.20
2023-02-15T13:16:58.865Z,1.00
2023-02-15T13:19:44.140Z,1.40
2023-02-15T13:22:14.590Z,2.40
2023-02-15T13:25:02.360Z,1.10
2023-02-15T13:27:38.398Z,2.50
2023-02-15T13:30:46.810Z,1.40
2023-02-15T13:33:26.817Z,0.90
2023-02-15T13:36:10.205Z,0.90
2023-02-15T13:38:53.333Z,1.20
2023-02-15T13:41:32.593Z,3.40
2023-02-15T13:44:15.910Z,2.90
2023-02-15T13:47:01.552Z,0.90
2023-02-15T13:50:04.745Z,2.70
2023-02-15T13:52:34.115Z,1.70
2023-02-15T13:55:19.821Z,1.30
2023-02-15T13:58:16.733Z,3.20
2023-02-15T14:01:22.739Z,1.30
2023-02-15T14:04:08.328Z,3.40
2023-02-15T14:07:13.920Z,0.90
2023-02-15T14:10:17.018Z,8.30
2023-02-15T14:12:44.309Z,0.80
2023-02-15T14:15:32.793Z,5.00
2023-02-15T14:18:00.803Z,4.80
2023-02-15T14:20:36.576Z,5.60
2023-02-15T14:23:20.122Z,2.60
2023-02-15T14:25:50.647Z,2.40
2023-02-15T14:28:23.438Z,2.20
2023-02-15T14:30:50.680Z,3.50
2023-02-15T14:33:37.057Z,1.60
2023-02-15T14:36:07.313Z,2.20
2023-02-15T14:38:47.935Z,3.90
2023-02-15T14:41:17.651Z,1.80
2023-02-15T14:44:12.299Z,1.40
2023-02-15T14:46:51.692Z,5.00
2023-02-15T14:49:22.122Z,4.20
2023-02-15T14:51:49.931Z,2.70
2023-02-15T14:54:21.472Z,2.30
2023-02-15T14:57:08.869Z,4.10
2023-02-15T14:59:46.567Z,7.40
2023-02-15T15:02:28.363Z,5.70
2023-02-15T15:05:11.088Z,3.00
2023-02-15T15:07:47.173Z,2.80
2023-02-15T15:10:18.078Z,3.00
2023-02-15T15:12:48.816Z,4.30
2023-02-15T15:15:32.628Z,2.70
2023-02-15T15:18:05.338Z,2.80
2023-02-15T15:20:49.063Z,4.40
2023-02-15T15:23:20.214Z,6.00
2023-02-15T15:25:56.382Z,1.90
2023-02-15T15:28:33.506Z,4.10
2023-02-15T15:31:31.724Z,3.40
2023-02-15T15:34:36.802Z,4.60
2023-02-15T15:37:56.935Z,5.30
2023-02-15T15:40:49.011Z,4.60
2023-02-15T15:43:22.774Z,5.80
2023-02-15T15:45:55.900Z,5.40
2023-02-15T15:48:39.249Z,6.30
2023-02-15T15:51:20.673Z,4.60
2023-02-15T15:53:50.802Z,7.10
2023-02-15T15:56:28.381Z,3.80
2023-02-15T15:59:00.941Z,6.00
2023-02-15T16:01:29.471Z,4.40
2023-02-15T16:03:58.194Z,9.90
2023-02-15T16:06:36.741Z,4.40
2023-02-15T16:09:15.697Z,9.10
2023-02-15T16:11:42.771Z,7.70
2023-02-15T16:14:14.673Z,5.40
2023-02-15T16:16:48.549Z,5.90
2023-02-15T16:19:18.975Z,12.60
2023-02-15T16:21:47.238Z,5.50
2023-02-15T16:24:38.898Z,4.80
2023-02-15T16:27:33.392Z,4.90
2023-02-15T16:30:25.335Z,3.80
2023-02-15T16:33:12.236Z,6.60
2023-02-15T16:35:42.285Z,5.20
2023-02-15T16:38:10.535Z,6.70
2023-02-15T16:40:43.800Z,4.40
2023-02-15T16:43:22.042Z,6.30
2023-02-15T16:45:48.894Z,5.40
2023-02-15T16:48:21.985Z,6.80
2023-02-15T16:50:54.072Z,4.20
2023-02-15T16:53:23.619Z,3.70
2023-02-15T16:55:52.876Z,3.60
2023-02-15T16:58:23.997Z,4.80
2023-02-15T17:00:50.799Z,3.70
2023-02-15T17:03:18.623Z,2.70
2023-02-15T17:05:47.186Z,3.10
2023-02-15T17:08:47.531Z,3.50
2023-02-15T17:11:19.428Z,2.70
2023-02-15T17:14:06.963Z,3.60
2023-02-15T17:16:34.485Z,2.70
2023-02-15T17:19:43.912Z,2.70
2023-02-15T17:22:20.327Z,3.00
2023-02-15T17:24:49.509Z,1.80
2023-02-15T17:27:24.194Z,3.90
2023-02-15T17:29:57.756Z,2.30
2023-02-15T17:32:26.880Z,2.70
2023-02-15T17:34:59.873Z,3.70
2023-02-15T17:37:31.961Z,2.70
2023-02-15T17:39:59.306Z,3.70
2023-02-15T17:42:26.141Z,4.70
2023-02-15T17:44:53.497Z,2.30
2023-02-15T17:47:21.412Z,3.10
2023-02-15T17:49:49.667Z,5.70
2023-02-15T17:52:17.226Z,3.80
2023-02-15T17:55:03.053Z,2.60
2023-02-15T17:57:30.460Z,2.20
2023-02-15T18:00:15.794Z,2.50
2023-02-15T18:03:02.087Z,3.90
2023-02-15T18:05:47.967Z,3.00
2023-02-15T18:08:33.968Z,5.30
2023-02-15T18:11:19.274Z,3.00
2023-02-15T18:13:46.829Z,6.10
2023-02-15T18:16:15.409Z,3.30
2023-02-15T18:18:43.567Z,4.30
2023-02-15T18:21:12.183Z,3.40
2023-02-15T18:23:40.039Z,3.40
2023-02-15T18:26:18.103Z,7.90
2023-02-15T18:28:44.879Z,4.20
2023-02-15T18:31:12.211Z,4.80
2023-02-15T18:33:42.235Z,3.20
2023-02-15T18:36:13.484Z,9.10
2023-02-15T18:38:42.304Z,3.60
2023-02-15T18:41:18.012Z,4.90
2023-02-15T18:43:48.345Z,4.80
2023-02-15T18:46:16.373Z,11.10
2023-02-15T18:48:43.533Z,8.20
2023-02-15T18:51:16.466Z,7.10
2023-02-15T18:53:43.485Z,9.10
2023-02-15T18:56:14.715Z,7.20
2023-02-15T18:58:42.495Z,10.70
2023-02-15T19:01:20.568Z,10.60
2023-02-15T19:03:49.836Z,12.00
2023-02-15T19:06:18.458Z,10.40
2023-02-15T19:08:48.404Z,12.30
2023-02-15T19:11:22.628Z,19.80
2023-02-15T19:13:50.580Z,19.60
2023-02-15T19:16:26.755Z,16.00
2023-02-15T19:18:53.733Z,14.30
2023-02-15T19:21:20.569Z,14.70
2023-02-15T19:23:52.540Z,13.80
2023-02-15T19:26:19.782Z,13.00
2023-02-15T19:28:47.283Z,12.00
2023-02-15T19:31:17.440Z,9.80
2023-02-15T19:33:44.902Z,8.50
2023-02-15T19:36:16.897Z,12.90
2023-02-15T19:38:45.711Z,10.10
2023-02-15T19:41:27.385Z,9.10
2023-02-15T19:43:56.100Z,9.00
2023-02-15T19:46:23.158Z,7.30
2023-02-15T19:48:51.041Z,6.90
2023-02-15T19:51:17.887Z,5.30
2023-02-15T19:53:45.375Z,8.10
2023-02-15T19:56:14.183Z,6.10
2023-02-15T19:58:42.072Z,5.20
2023-02-15T20:01:09.164Z,5.50
2023-02-15T20:03:36.644Z,4.40
2023-02-15T20:06:03.715Z,6.60
2023-02-15T20:08:34.163Z,4.70
2023-02-15T20:11:01.454Z,4.00
2023-02-15T20:13:29.589Z,4.00
2023-02-15T20:15:57.335Z,5.50
2023-02-15T20:18:24.009Z,3.10
2023-02-15T20:20:53.902Z,4.10
2023-02-15T20:23:26.998Z,3.80
2023-02-15T20:25:57.228Z,3.70
2023-02-15T20:28:25.690Z,5.70
2023-02-15T20:30:52.566Z,4.90
2023-02-15T20:33:20.539Z,4.00
2023-02-15T20:35:47.773Z,4.20
2023-02-15T20:38:24.106Z,5.90
2023-02-15T20:41:09.599Z,4.80
2023-02-15T20:43:36.631Z,3.70
2023-02-15T20:46:04.486Z,4.00
2023-02-15T20:48:33.066Z,5.70
2023-02-15T20:50:59.714Z,4.30
2023-02-15T20:53:30.185Z,5.10
2023-02-15T20:55:57.764Z,3.90
2023-02-15T20:58:28.513Z,5.00
2023-02-15T21:00:57.201Z,4.80
2023-02-15T21:03:30.179Z,3.20
2023-02-15T21:05:58.355Z,4.40
2023-02-15T21:08:25.821Z,3.80
2023-02-15T21:10:53.104Z,6.50
2023-02-15T21:13:30.427Z,8.10
2023-02-15T21:15:58.954Z,5.30
2023-02-15T21:18:32.825Z,5.90
2023-02-15T21:23:38.672Z,6.40
2023-02-15T21:26:06.208Z,4.00
2023-02-15T21:28:33.002Z,5.20
2023-02-15T21:31:00.856Z,4.60
2023-02-15T21:33:28.918Z,5.10
2023-02-15T21:35:56.314Z,5.60
2023-02-15T21:38:24.593Z,4.70
2023-02-15T21:40:51.300Z,7.10
2023-02-15T21:43:42.682Z,6.30
2023-02-15T21:46:34.608Z,6.70
2023-02-15T21:49:01.924Z,7.00
2023-02-15T21:51:47.718Z,5.80
2023-02-15T21:54:16.721Z,6.60
2023-02-15T21:56:43.805Z,7.20
2023-02-15T21:59:11.580Z,8.70
2023-02-15T22:01:40.716Z,5.40
2023-02-15T22:04:18.677Z,9.50
2023-02-15T22:06:46.155Z,9.10
2023-02-15T22:09:17.181Z,6.70
2023-02-15T22:11:45.373Z,6.80
2023-02-15T22:14:40.260Z,6.40
2023-02-15T22:17:15.124Z,6.00
2023-02-15T22:19:42.891Z,6.60
2023-02-15T22:22:09.900Z,7.50
2023-02-15T22:24:37.796Z,6.90
2023-02-15T22:27:04.848Z,6.60
2023-02-15T22:29:32.173Z,6.50
2023-02-15T22:31:58.928Z,5.80
2023-02-15T22:34:29.427Z,9.20
2023-02-15T22:36:58.325Z,6.50
2023-02-15T22:39:25.106Z,7.80
2023-02-15T22:41:52.480Z,5.70
2023-02-15T22:44:22.381Z,5.60
2023-02-15T22:46:49.223Z,5.30
2023-02-15T22:49:16.249Z,5.60
2023-02-15T22:51:43.416Z,4.60
2023-02-15T22:54:10.098Z,5.40
2023-02-15T22:56:45.887Z,5.50
2023-02-15T22:59:28.609Z,5.60
2023-02-15T23:02:00.392Z,4.40
2023-02-15T23:04:28.083Z,5.50
2023-02-15T23:06:57.562Z,7.10
2023-02-15T23:09:24.727Z,5.00
2023-02-15T23:11:51.628Z,4.00
2023-02-15T23:14:22.260Z,6.50
2023-02-15T23:16:49.686Z,5.40
2023-02-15T23:19:16.937Z,6.40
2023-02-15T23:21:43.856Z,4.80
2023-02-15T23:24:28.335Z,6.60
2023-02-15T23:27:15.215Z,6.40
2023-02-15T23:29:42.000Z,6.60
2023-02-15T23:32:10.635Z,7.80
2023-02-15T23:34:37.602Z,8.00
2023-02-15T23:37:04.755Z,10.10
2023-02-15T23:39:50.311Z,11.30
2023-02-15T23:42:23.145Z,9.90
2023-02-15T23:44:52.464Z,7.20
2023-02-15T23:47:47.852Z,9.00
2023-02-15T23:50:28.724Z,8.30
2023-02-15T23:53:43.909Z,7.50
2023-02-15T23:56:13.286Z,9.30
2023-02-15T23:58:43.282Z,9.40
